Terminal Aerodrome Forecast
Issued by NWS Sioux Falls, SD

Home | Current Version | Previous Version | Text Only | Print | Product List | Glossary On
Versions: 1 2 3 4 5 6 7 8 9 10 11 12 13 14 15 16 17 18 19 20 21 22 23 24 25 26 27 28 29 30 31 32 33
000
FTUS43 KFSD 241638 AAA
TAFSUX
TAF AMD
KSUX 241638Z 2417/2512 08010KT 2SM RA BR SCT010 OVC020
      TEMPO 2417/2421 4SM -RA BR OVC010
     FM242100 10010KT 5SM -RA BR OVC008
     FM250100 11005KT P6SM BKN010
     FM250400 13007KT P6SM SCT015=

USA.gov is the U.S. government's official web portal to all federal, state and local government web resources and services.